Time;durP1;ratioP1;P1;durP2;ratioP2;P2;SDS_P1;SDS_P2;PMS_P1;PMS_P2;Temp;Humidity;BMP_temperature;BMP_pressure;BME280_temperature;BME280_humidity;BME280_pressure;Samples;Min_cycle;Max_cycle;Signal;HPM_P1;HPM_P2
2022/03/23 00:01:43;;;;;;;29.43;15.57;;;;;;;;;;5056068;28;20063;-65
2022/03/23 00:04:09;;;;;;;29.17;15.40;;;;;;;;;;5055947;28;20024;-65
2022/03/23 00:06:35;;;;;;;22.17;13.70;;;;;;;;;;5055661;28;20025;-66
2022/03/23 00:09:01;;;;;;;25.33;13.97;;;;;;;;;;5056112;28;20351;-66
2022/03/23 00:11:28;;;;;;;23.27;15.00;;;;;;;;;;5055902;28;20025;-66
2022/03/23 00:13:54;;;;;;;23.67;14.27;;;;;;;;;;5055862;28;20037;-65
2022/03/23 00:16:20;;;;;;;22.17;13.20;;;;;;;;;;5055649;28;20021;-65
2022/03/23 00:18:47;;;;;;;26.80;14.17;;;;;;;;;;5055562;28;20029;-66
2022/03/23 00:21:13;;;;;;;25.27;14.33;;;;;;;;;;5055661;28;20414;-65
2022/03/23 00:23:39;;;;;;;24.70;15.33;;;;;;;;;;5055650;28;20071;-65
2022/03/23 00:26:06;;;;;;;25.93;14.93;;;;;;;;;;5055033;28;20025;-65
2022/03/23 00:28:32;;;;;;;23.63;14.17;;;;;;;;;;5055446;28;20029;-65
2022/03/23 00:30:59;;;;;;;25.07;14.23;;;;;;;;;;5055743;28;20423;-65
2022/03/23 00:33:25;;;;;;;24.03;14.17;;;;;;;;;;5055525;28;20055;-65
2022/03/23 00:35:51;;;;;;;20.13;13.00;;;;;;;;;;5055265;28;20074;-65
2022/03/23 00:38:18;;;;;;;19.00;12.10;;;;;;;;;;5054968;28;20025;-66
2022/03/23 00:40:46;;;;;;;21.20;13.67;;;;;;;;;;5055487;28;20043;-65
2022/03/23 00:43:12;;;;;;;16.77;11.20;;;;;;;;;;5055042;28;20033;-65
2022/03/23 00:45:39;;;;;;;16.63;11.50;;;;;;;;;;5055024;28;20025;-66
2022/03/23 00:48:06;;;;;;;19.13;10.33;;;;;;;;;;5055252;28;20032;-65
2022/03/23 00:50:34;;;;;;;15.73;10.70;;;;;;;;;;5055108;28;20060;-65
2022/03/23 00:53:00;;;;;;;18.87;11.57;;;;;;;;;;5078926;28;20072;-66
2022/03/23 00:55:26;;;;;;;19.90;11.70;;;;;;;;;;5095201;28;20028;-66
2022/03/23 00:57:52;;;;;;;20.87;12.30;;;;;;;;;;5095607;28;20020;-71
2022/03/23 01:00:20;;;;;;;19.23;12.10;;;;;;;;;;5095098;28;20069;-65
2022/03/23 01:02:46;;;;;;;18.73;11.30;;;;;;;;;;5094857;28;20036;-65
2022/03/23 01:05:13;;;;;;;25.90;12.07;;;;;;;;;;5094598;28;20061;-65
2022/03/23 01:07:39;;;;;;;20.00;10.97;;;;;;;;;;5094915;28;20062;-65
2022/03/23 01:10:07;;;;;;;19.00;11.13;;;;;;;;;;5094858;28;20066;-65
2022/03/23 01:12:34;;;;;;;20.17;11.80;;;;;;;;;;5094799;28;20054;-65
2022/03/23 01:15:00;;;;;;;16.03;10.80;;;;;;;;;;5094790;28;20024;-67
2022/03/23 01:17:27;;;;;;;18.43;11.50;;;;;;;;;;5094849;28;20385;-65
2022/03/23 01:19:53;;;;;;;15.93;10.67;;;;;;;;;;5094769;28;20602;-65
2022/03/23 01:22:19;;;;;;;17.13;11.30;;;;;;;;;;5094724;28;20536;-66
2022/03/23 01:24:46;;;;;;;16.73;10.37;;;;;;;;;;5076590;28;20385;-65
2022/03/23 01:27:12;;;;;;;16.10;9.83;;;;;;;;;;5094503;28;20029;-65
2022/03/23 01:29:38;;;;;;;17.03;9.97;;;;;;;;;;5094655;28;20032;-65
2022/03/23 01:32:05;;;;;;;20.27;10.03;;;;;;;;;;5094484;28;20020;-66
2022/03/23 01:34:31;;;;;;;19.77;9.97;;;;;;;;;;5094676;28;20058;-65
2022/03/23 01:36:57;;;;;;;21.23;11.27;;;;;;;;;;5093727;28;20099;-65
2022/03/23 01:39:23;;;;;;;21.00;12.47;;;;;;;;;;5093897;28;20024;-65
2022/03/23 01:41:49;;;;;;;21.13;13.73;;;;;;;;;;5094514;28;20460;-65
2022/03/23 01:44:25;;;;;;;29.30;13.37;;;;;;;;;;5094275;28;20024;-65
2022/03/23 01:47:00;;;;;;;27.07;14.43;;;;;;;;;;5094220;28;20028;-65
2022/03/23 01:49:26;;;;;;;23.47;15.20;;;;;;;;;;5094166;28;20372;-65
2022/03/23 01:51:52;;;;;;;26.73;14.20;;;;;;;;;;5093921;28;20051;-65
2022/03/23 01:54:19;;;;;;;25.07;14.23;;;;;;;;;;5094085;28;20033;-65
2022/03/23 01:56:45;;;;;;;24.40;14.43;;;;;;;;;;5093726;28;20416;-65
2022/03/23 01:59:11;;;;;;;18.87;11.57;;;;;;;;;;5091132;28;20031;-66
2022/03/23 02:01:38;;;;;;;19.67;11.07;;;;;;;;;;5090904;28;20036;-66
2022/03/23 02:04:04;;;;;;;20.10;12.73;;;;;;;;;;5091351;28;20063;-65
2022/03/23 02:06:31;;;;;;;22.50;11.57;;;;;;;;;;5093601;28;20035;-65
2022/03/23 02:08:57;;;;;;;18.60;11.13;;;;;;;;;;5093992;28;20028;-65
2022/03/23 02:11:24;;;;;;;19.63;11.33;;;;;;;;;;5093732;28;20020;-65
2022/03/23 02:13:50;;;;;;;23.30;11.13;;;;;;;;;;5093420;28;20040;-65
2022/03/23 02:16:16;;;;;;;19.53;10.67;;;;;;;;;;5093659;28;20069;-65
2022/03/23 02:18:42;;;;;;;15.53;9.73;;;;;;;;;;5093430;28;20055;-65
2022/03/23 02:21:08;;;;;;;14.13;9.67;;;;;;;;;;5093062;28;20369;-65
2022/03/23 02:23:34;;;;;;;17.10;9.67;;;;;;;;;;5093628;28;20028;-65
2022/03/23 02:26:01;;;;;;;16.73;8.37;;;;;;;;;;5093509;28;20028;-65
2022/03/23 02:28:27;;;;;;;15.50;9.20;;;;;;;;;;5093185;28;20099;-65
2022/03/23 02:30:54;;;;;;;11.47;7.63;;;;;;;;;;5093287;28;20012;-64
2022/03/23 02:33:20;;;;;;;16.97;8.50;;;;;;;;;;5092945;28;20523;-65
2022/03/23 02:35:48;;;;;;;15.07;7.73;;;;;;;;;;5092946;28;20029;-65
2022/03/23 02:38:16;;;;;;;14.20;7.90;;;;;;;;;;5093505;28;20024;-66
2022/03/23 02:40:42;;;;;;;13.07;7.73;;;;;;;;;;5093410;28;20082;-65
2022/03/23 02:43:08;;;;;;;14.60;7.80;;;;;;;;;;5093346;28;20477;-65
2022/03/23 02:45:35;;;;;;;15.57;7.83;;;;;;;;;;5093349;28;20017;-65
2022/03/23 02:48:03;;;;;;;10.30;7.43;;;;;;;;;;5092799;28;20024;-66
2022/03/23 02:50:29;;;;;;;12.87;7.80;;;;;;;;;;5093278;28;20024;-66
2022/03/23 03:04:03;;;;;;;12.23;8.20;;;;;;;;;;5093055;28;20097;-65
2022/03/23 03:06:29;;;;;;;15.87;8.90;;;;;;;;;;5093057;28;20422;-65
2022/03/23 03:08:55;;;;;;;12.00;8.40;;;;;;;;;;5092879;28;20028;-65
2022/03/23 03:11:22;;;;;;;14.90;9.10;;;;;;;;;;5093129;28;20091;-65
2022/03/23 03:13:49;;;;;;;17.17;11.53;;;;;;;;;;5092788;28;20028;-65
2022/03/23 03:16:16;;;;;;;23.73;10.10;;;;;;;;;;5092711;28;20016;-66
2022/03/23 03:18:42;;;;;;;22.40;12.43;;;;;;;;;;5092985;28;20020;-65
2022/03/23 03:21:09;;;;;;;17.67;11.37;;;;;;;;;;5093013;28;20055;-65
2022/03/23 03:23:39;;;;;;;18.57;11.97;;;;;;;;;;5092847;28;20016;-65
2022/03/23 03:26:06;;;;;;;19.23;10.37;;;;;;;;;;5092652;28;20020;-65
2022/03/23 03:28:33;;;;;;;18.77;11.23;;;;;;;;;;5092937;28;20016;-66
2022/03/23 03:31:00;;;;;;;18.63;11.13;;;;;;;;;;5092571;28;20028;-65
2022/03/23 03:33:26;;;;;;;23.13;10.73;;;;;;;;;;5092520;28;20115;-66
2022/03/23 03:35:52;;;;;;;19.03;11.47;;;;;;;;;;5092660;28;20027;-65
2022/03/23 03:38:18;;;;;;;22.27;10.73;;;;;;;;;;5092714;28;20020;-65
2022/03/23 03:40:45;;;;;;;17.03;10.17;;;;;;;;;;5092748;28;20022;-65
2022/03/23 03:43:11;;;;;;;19.07;10.97;;;;;;;;;;5092694;28;20028;-65
2022/03/23 03:45:37;;;;;;;23.70;11.80;;;;;;;;;;5092580;28;20024;-65
2022/03/23 03:48:03;;;;;;;19.60;11.77;;;;;;;;;;5092710;28;20031;-65
2022/03/23 03:50:29;;;;;;;24.27;12.80;;;;;;;;;;5092712;28;20483;-65
2022/03/23 03:52:55;;;;;;;25.20;13.37;;;;;;;;;;5092354;28;20048;-65
2022/03/23 03:55:22;;;;;;;21.37;12.90;;;;;;;;;;5092772;28;20062;-65
2022/03/23 03:57:48;;;;;;;24.67;12.73;;;;;;;;;;5092650;28;20028;-65
2022/03/23 04:00:15;;;;;;;19.10;12.40;;;;;;;;;;5093837;28;20042;-65
2022/03/23 04:02:41;;;;;;;19.53;11.97;;;;;;;;;;5096431;28;20024;-65
2022/03/23 04:05:07;;;;;;;26.70;13.27;;;;;;;;;;5096205;28;20032;-65
2022/03/23 04:07:34;;;;;;;18.63;12.40;;;;;;;;;;5095939;28;20487;-65
2022/03/23 04:10:00;;;;;;;30.53;12.90;;;;;;;;;;5095541;28;20534;-66
2022/03/23 04:12:26;;;;;;;20.20;12.47;;;;;;;;;;5095773;28;20032;-65
2022/03/23 04:14:52;;;;;;;25.40;12.60;;;;;;;;;;5095781;28;20024;-65
2022/03/23 04:17:18;;;;;;;19.37;11.80;;;;;;;;;;5095663;28;20034;-65
2022/03/23 04:19:44;;;;;;;27.80;12.53;;;;;;;;;;5096024;28;20024;-68
2022/03/23 04:22:10;;;;;;;19.10;11.90;;;;;;;;;;5095895;28;20085;-65
2022/03/23 04:24:37;;;;;;;26.97;13.00;;;;;;;;;;5095626;28;20063;-65
2022/03/23 04:27:03;;;;;;;27.10;12.47;;;;;;;;;;5095842;28;20366;-65
2022/03/23 04:29:29;;;;;;;26.83;12.63;;;;;;;;;;5095585;28;20032;-65
2022/03/23 04:31:55;;;;;;;18.87;11.30;;;;;;;;;;5095242;28;20048;-65
2022/03/23 04:34:21;;;;;;;24.73;11.93;;;;;;;;;;5095660;28;20484;-65
2022/03/23 04:36:47;;;;;;;22.67;12.30;;;;;;;;;;5095794;28;20107;-65
2022/03/23 04:39:13;;;;;;;26.37;12.70;;;;;;;;;;5095517;28;20032;-65
2022/03/23 04:41:39;;;;;;;19.47;11.17;;;;;;;;;;5095472;28;20020;-65
2022/03/23 04:44:05;;;;;;;21.40;11.43;;;;;;;;;;5095218;28;20421;-65
2022/03/23 04:46:31;;;;;;;25.97;10.93;;;;;;;;;;5095158;28;20024;-66
2022/03/23 04:48:57;;;;;;;18.40;10.20;;;;;;;;;;5095294;28;20054;-65
2022/03/23 04:51:23;;;;;;;22.43;10.23;;;;;;;;;;5095425;28;20485;-65
2022/03/23 04:53:50;;;;;;;26.57;9.97;;;;;;;;;;5094648;28;20059;-65
2022/03/23 04:56:16;;;;;;;23.40;9.03;;;;;;;;;;5094844;28;20426;-65
2022/03/23 04:58:43;;;;;;;18.47;9.00;;;;;;;;;;5095186;28;20051;-65
2022/03/23 05:01:09;;;;;;;17.53;8.83;;;;;;;;;;5095305;28;20097;-72
2022/03/23 05:03:35;;;;;;;12.50;7.90;;;;;;;;;;5095103;28;20035;-65
2022/03/23 05:06:02;;;;;;;15.47;7.90;;;;;;;;;;5094908;28;20089;-66
2022/03/23 05:08:28;;;;;;;11.73;6.57;;;;;;;;;;5094999;28;20026;-65
2022/03/23 05:10:54;;;;;;;20.67;11.70;;;;;;;;;;5095024;28;20056;-65
2022/03/23 05:13:20;;;;;;;30.17;8.60;;;;;;;;;;5094811;28;20032;-65
2022/03/23 05:15:46;;;;;;;29.80;8.40;;;;;;;;;;5094848;28;20024;-66
2022/03/23 05:18:12;;;;;;;18.27;7.83;;;;;;;;;;5094955;28;20038;-73
2022/03/23 05:20:38;;;;;;;14.27;7.90;;;;;;;;;;5094646;28;20024;-66
2022/03/23 05:23:05;;;;;;;14.37;8.03;;;;;;;;;;5094767;28;20040;-65
2022/03/23 05:25:31;;;;;;;13.43;7.73;;;;;;;;;;5094643;28;20420;-65
2022/03/23 05:27:57;;;;;;;16.53;8.03;;;;;;;;;;5094747;28;20516;-65
2022/03/23 05:30:23;;;;;;;13.93;8.30;;;;;;;;;;5094688;28;20102;-66
2022/03/23 05:32:49;;;;;;;36.07;9.70;;;;;;;;;;5094474;28;20491;-65
2022/03/23 05:35:17;;;;;;;33.10;10.60;;;;;;;;;;5094249;28;20024;-65
2022/03/23 05:37:43;;;;;;;23.80;10.07;;;;;;;;;;5094443;28;20118;-65
2022/03/23 05:40:11;;;;;;;25.30;9.80;;;;;;;;;;5094237;28;20417;-65
2022/03/23 05:42:37;;;;;;;28.20;9.40;;;;;;;;;;5094247;28;20020;-65
2022/03/23 05:45:03;;;;;;;25.53;9.47;;;;;;;;;;5094177;28;20028;-66
2022/03/23 05:47:29;;;;;;;22.10;9.70;;;;;;;;;;5094101;28;20590;-66
2022/03/23 05:49:55;;;;;;;21.50;8.93;;;;;;;;;;5094103;28;20472;-65
2022/03/23 05:52:21;;;;;;;14.87;9.40;;;;;;;;;;5094025;28;20517;-65
2022/03/23 05:54:47;;;;;;;16.73;9.50;;;;;;;;;;5075852;28;20392;-65
2022/03/23 05:57:13;;;;;;;18.63;8.87;;;;;;;;;;5093795;28;20518;-65
2022/03/23 05:59:39;;;;;;;22.40;9.90;;;;;;;;;;5093985;28;20035;-65
2022/03/23 06:02:05;;;;;;;20.67;7.80;;;;;;;;;;5093766;28;20017;-65
2022/03/23 06:04:31;;;;;;;17.63;6.93;;;;;;;;;;5094002;28;20059;-65
2022/03/23 06:06:57;;;;;;;14.70;6.40;;;;;;;;;;5093913;28;20020;-65
2022/03/23 06:09:23;;;;;;;12.07;5.90;;;;;;;;;;5093972;28;20051;-65
2022/03/23 06:11:49;;;;;;;13.80;5.97;;;;;;;;;;5094045;28;20031;-65
2022/03/23 06:14:15;;;;;;;21.83;7.90;;;;;;;;;;5093776;28;20023;-65
2022/03/23 06:16:42;;;;;;;26.97;8.87;;;;;;;;;;5093586;28;20534;-65
2022/03/23 06:19:10;;;;;;;24.13;7.90;;;;;;;;;;5093655;28;20464;-66
2022/03/23 06:21:36;;;;;;;14.23;6.90;;;;;;;;;;5093612;28;20094;-66
2022/03/23 06:24:02;;;;;;;13.70;6.23;;;;;;;;;;5092618;28;20020;-65
2022/03/23 06:26:28;;;;;;;12.47;6.00;;;;;;;;;;5093094;28;20468;-65
2022/03/23 06:28:54;;;;;;;15.63;6.07;;;;;;;;;;5093412;28;20438;-65
2022/03/23 06:31:21;;;;;;;12.10;5.80;;;;;;;;;;5093589;28;20023;-66
2022/03/23 06:33:47;;;;;;;11.67;5.93;;;;;;;;;;5093293;28;20036;-65
2022/03/23 06:36:13;;;;;;;11.37;5.80;;;;;;;;;;5093333;28;20024;-66
2022/03/23 06:38:39;;;;;;;14.73;6.50;;;;;;;;;;5093020;28;20103;-66
2022/03/23 06:41:07;;;;;;;14.20;6.07;;;;;;;;;;5093316;28;20024;-66
2022/03/23 06:43:33;;;;;;;11.33;6.03;;;;;;;;;;5092545;28;20024;-66
2022/03/23 06:46:00;;;;;;;14.33;6.87;;;;;;;;;;5092696;28;20016;-66
2022/03/23 06:48:26;;;;;;;20.63;10.30;;;;;;;;;;5093133;28;20465;-65
2022/03/23 06:50:52;;;;;;;22.13;12.93;;;;;;;;;;5092803;28;20020;-65
2022/03/23 06:53:18;;;;;;;17.60;10.53;;;;;;;;;;5092829;28;20048;-65
2022/03/23 06:55:44;;;;;;;17.43;8.33;;;;;;;;;;5093239;28;20028;-66
2022/03/23 06:58:10;;;;;;;16.03;6.77;;;;;;;;;;5092883;28;20031;-65
2022/03/23 07:00:36;;;;;;;10.57;6.40;;;;;;;;;;5092807;28;20035;-67
2022/03/23 07:03:05;;;;;;;12.87;5.93;;;;;;;;;;5092918;28;20040;-67
2022/03/23 07:05:31;;;;;;;15.27;5.97;;;;;;;;;;5092707;28;20043;-66
2022/03/23 07:10:42;;;;;;;14.00;5.73;;;;;;;;;;5092910;28;20043;-66
2022/03/23 07:13:08;;;;;;;11.07;5.60;;;;;;;;;;5092184;28;20036;-67
2022/03/23 07:15:34;;;;;;;20.13;6.63;;;;;;;;;;5092670;28;20460;-72
2022/03/23 07:18:00;;;;;;;12.03;5.67;;;;;;;;;;5089136;28;20109;-72
2022/03/23 07:20:27;;;;;;;11.83;6.00;;;;;;;;;;5092033;28;20035;-73
2022/03/23 07:22:54;;;;;;;11.20;5.60;;;;;;;;;;5074220;28;20040;-73
2022/03/23 07:25:20;;;;;;;13.97;5.87;;;;;;;;;;5092201;28;20027;-72
2022/03/23 07:27:46;;;;;;;18.23;6.37;;;;;;;;;;5092664;28;20144;-73
2022/03/23 07:30:12;;;;;;;12.43;5.33;;;;;;;;;;5092210;28;20020;-72
2022/03/23 07:32:38;;;;;;;16.73;6.47;;;;;;;;;;5091832;28;20036;-72
2022/03/23 07:35:04;;;;;;;27.60;11.97;;;;;;;;;;5093567;28;20024;-71
2022/03/23 07:37:31;;;;;;;20.07;10.77;;;;;;;;;;5096126;28;20036;-72
2022/03/23 07:39:57;;;;;;;25.53;11.70;;;;;;;;;;5096389;28;20035;-71
2022/03/23 07:42:23;;;;;;;20.03;8.33;;;;;;;;;;5096268;28;20024;-71
2022/03/23 07:44:49;;;;;;;21.77;7.10;;;;;;;;;;5096155;28;20522;-73
2022/03/23 07:47:15;;;;;;;17.30;6.67;;;;;;;;;;5096026;28;20016;-73
2022/03/23 07:49:41;;;;;;;15.05;6.18;;;;;;;;;;5095987;28;20024;-74
2022/03/23 07:52:08;;;;;;;25.50;6.82;;;;;;;;;;5095477;28;20036;-76
2022/03/23 07:54:34;;;;;;;20.83;6.10;;;;;;;;;;5076970;28;20032;-75
2022/03/23 07:57:00;;;;;;;21.90;6.28;;;;;;;;;;5077412;28;20035;-73
2022/03/23 07:59:27;;;;;;;16.73;6.03;;;;;;;;;;5095893;28;20062;-76
2022/03/23 08:01:53;;;;;;;15.93;5.82;;;;;;;;;;5095880;28;20136;-75
2022/03/23 08:04:19;;;;;;;13.30;5.57;;;;;;;;;;5077547;28;20028;-74
2022/03/23 08:06:45;;;;;;;14.88;5.47;;;;;;;;;;5095626;28;20016;-73
2022/03/23 08:09:11;;;;;;;15.93;6.00;;;;;;;;;;5095761;28;20031;-73
2022/03/23 08:11:37;;;;;;;16.23;6.30;;;;;;;;;;5095713;28;20099;-75
2022/03/23 08:14:03;;;;;;;12.13;5.43;;;;;;;;;;5077336;28;20028;-76
2022/03/23 08:16:30;;;;;;;9.90;5.57;;;;;;;;;;5095104;28;20544;-75
2022/03/23 08:18:56;;;;;;;12.82;5.53;;;;;;;;;;5095227;28;20049;-76
2022/03/23 08:21:23;;;;;;;9.82;5.72;;;;;;;;;;5095240;28;20021;-76
2022/03/23 08:23:49;;;;;;;15.40;5.72;;;;;;;;;;5094982;28;20028;-75
2022/03/23 08:26:16;;;;;;;10.02;5.45;;;;;;;;;;5094951;28;20028;-71
2022/03/23 08:28:43;;;;;;;13.73;5.25;;;;;;;;;;5076245;28;20026;-76
2022/03/23 08:31:09;;;;;;;10.63;4.80;;;;;;;;;;5094336;28;20086;-76
2022/03/23 08:33:35;;;;;;;9.93;5.72;;;;;;;;;;5075912;28;20032;-78
2022/03/23 08:36:02;;;;;;;13.60;5.18;;;;;;;;;;5076331;28;20389;-77
2022/03/23 08:38:28;;;;;;;7.03;4.80;;;;;;;;;;5094290;28;20056;-77
2022/03/23 08:40:54;;;;;;;9.55;5.13;;;;;;;;;;5094564;28;20060;-76
2022/03/23 08:43:20;;;;;;;11.02;5.45;;;;;;;;;;5094227;28;20046;-77
2022/03/23 08:45:47;;;;;;;8.50;5.28;;;;;;;;;;5093736;28;20050;-77
2022/03/23 08:48:13;;;;;;;13.20;5.22;;;;;;;;;;5094982;28;20034;-71
2022/03/23 08:50:42;;;;;;;10.60;5.45;;;;;;;;;;5094148;28;20035;-85
2022/03/23 08:53:08;;;;;;;11.45;5.57;;;;;;;;;;5094220;28;20056;-77
2022/03/23 08:55:35;;;;;;;13.13;6.57;;;;;;;;;;5094673;28;20020;-75
2022/03/23 08:58:01;;;;;;;12.20;5.90;;;;;;;;;;5094679;28;20016;-74
2022/03/23 09:00:27;;;;;;;7.85;5.47;;;;;;;;;;5094572;28;20107;-75
2022/03/23 09:02:53;;;;;;;10.05;5.72;;;;;;;;;;5094684;28;20060;-76
2022/03/23 09:05:20;;;;;;;10.90;5.95;;;;;;;;;;5094774;28;20392;-73
2022/03/23 09:07:46;;;;;;;9.10;5.22;;;;;;;;;;5094644;28;20040;-74
2022/03/23 09:10:13;;;;;;;11.77;5.70;;;;;;;;;;5094871;28;20047;-74
2022/03/23 09:12:40;;;;;;;11.05;6.07;;;;;;;;;;5094651;28;20028;-73
2022/03/23 09:15:07;;;;;;;7.90;5.72;;;;;;;;;;5094485;28;20103;-74
2022/03/23 09:17:33;;;;;;;12.00;5.68;;;;;;;;;;5094145;28;20028;-74
2022/03/23 09:20:02;;;;;;;12.52;5.50;;;;;;;;;;5094351;28;20028;-74
2022/03/23 09:22:29;;;;;;;11.27;6.13;;;;;;;;;;5093958;28;20059;-74
2022/03/23 09:24:55;;;;;;;8.88;5.97;;;;;;;;;;5075795;28;20365;-74
2022/03/23 09:27:21;;;;;;;8.05;5.57;;;;;;;;;;5093955;28;20031;-75
2022/03/23 09:29:47;;;;;;;14.23;5.90;;;;;;;;;;5094398;28;20044;-80
2022/03/23 09:32:13;;;;;;;10.88;5.53;;;;;;;;;;5094717;28;20042;-76
2022/03/23 09:34:40;;;;;;;10.27;5.80;;;;;;;;;;5094469;28;20028;-73
2022/03/23 09:39:52;;;;;;;9.73;5.60;;;;;;;;;;5093929;28;20034;-73
2022/03/23 09:42:18;;;;;;;7.53;5.88;;;;;;;;;;5076168;28;20406;-74
2022/03/23 09:44:45;;;;;;;7.63;5.28;;;;;;;;;;5094300;28;20036;-73
2022/03/23 09:47:12;;;;;;;8.57;5.70;;;;;;;;;;5094296;28;20032;-74
2022/03/23 09:49:38;;;;;;;7.95;4.80;;;;;;;;;;5075877;28;20028;-74
2022/03/23 09:52:05;;;;;;;7.10;5.25;;;;;;;;;;5075569;28;20024;-75
2022/03/23 09:54:31;;;;;;;12.18;5.90;;;;;;;;;;5094192;28;20046;-74
2022/03/23 09:56:57;;;;;;;9.50;5.25;;;;;;;;;;5093443;28;20020;-75
2022/03/23 09:59:23;;;;;;;9.70;5.38;;;;;;;;;;5075711;28;20028;-74
2022/03/23 10:01:49;;;;;;;11.15;5.60;;;;;;;;;;5093760;28;20145;-74
2022/03/23 10:04:18;;;;;;;10.98;5.32;;;;;;;;;;5093956;28;20452;-74
2022/03/23 10:06:59;;;;;;;11.07;6.07;;;;;;;;;;5093603;28;20028;-74
2022/03/23 10:09:41;;;;;;;13.50;5.57;;;;;;;;;;5093598;28;20043;-74
2022/03/23 10:12:25;;;;;;;11.55;6.50;;;;;;;;;;5075210;28;20032;-74
2022/03/23 10:15:00;;;;;;;8.70;5.65;;;;;;;;;;5093168;28;20039;-74
2022/03/23 10:17:43;;;;;;;10.40;5.63;;;;;;;;;;5092959;28;20028;-73
2022/03/23 10:20:11;;;;;;;11.75;5.50;;;;;;;;;;5093496;28;20024;-74
2022/03/23 10:22:45;;;;;;;8.82;5.60;;;;;;;;;;5075224;28;20036;-73
2022/03/23 10:25:11;;;;;;;15.65;5.50;;;;;;;;;;5093363;28;20020;-73
2022/03/23 10:27:38;;;;;;;13.88;5.25;;;;;;;;;;5093565;28;20021;-76
2022/03/23 10:30:04;;;;;;;10.35;5.32;;;;;;;;;;5075181;28;20469;-74
2022/03/23 10:32:34;;;;;;;12.15;6.72;;;;;;;;;;5093184;28;20488;-76
2022/03/23 10:35:00;;;;;;;10.63;5.40;;;;;;;;;;5093137;28;20392;-74
2022/03/23 10:37:30;;;;;;;9.45;4.78;;;;;;;;;;5093299;28;20028;-74
2022/03/23 10:39:57;;;;;;;10.00;5.35;;;;;;;;;;5093119;28;20008;-74
2022/03/23 10:42:26;;;;;;;7.47;4.57;;;;;;;;;;5092568;28;20043;-76
2022/03/23 10:45:02;;;;;;;5.75;4.53;;;;;;;;;;5091224;28;20391;-76
2022/03/23 10:47:33;;;;;;;10.68;5.32;;;;;;;;;;5093327;28;20046;-74
2022/03/23 10:50:07;;;;;;;9.57;5.30;;;;;;;;;;5093331;28;20032;-75
2022/03/23 10:52:33;;;;;;;9.23;5.10;;;;;;;;;;5092475;28;20047;-74
2022/03/23 10:55:00;;;;;;;7.35;4.72;;;;;;;;;;5093214;28;20016;-74
2022/03/23 10:57:45;;;;;;;14.98;5.53;;;;;;;;;;5093155;28;20028;-74
2022/03/23 11:00:18;;;;;;;7.72;5.07;;;;;;;;;;5093242;28;20020;-74
2022/03/23 11:02:49;;;;;;;6.85;4.57;;;;;;;;;;5092869;28;20426;-74
2022/03/23 11:05:31;;;;;;;6.00;4.40;;;;;;;;;;5092863;28;20375;-73
2022/03/23 11:08:12;;;;;;;9.52;5.07;;;;;;;;;;5093076;28;20024;-73
2022/03/23 11:16:14;;;;;;;9.55;4.95;;;;;;;;;;5097248;28;20035;-73
2022/03/23 11:18:40;;;;;;;8.70;4.63;;;;;;;;;;5097422;28;20024;-80
2022/03/23 11:21:07;;;;;;;8.82;5.03;;;;;;;;;;5097128;28;20464;-73
2022/03/23 11:23:35;;;;;;;6.93;5.10;;;;;;;;;;5096793;28;20028;-75
2022/03/23 11:26:01;;;;;;;12.60;5.50;;;;;;;;;;5096559;28;20361;-74
2022/03/23 11:28:28;;;;;;;10.23;5.22;;;;;;;;;;5096643;28;20024;-74
2022/03/23 11:30:56;;;;;;;7.97;4.72;;;;;;;;;;5096590;28;20077;-74
2022/03/23 11:33:23;;;;;;;6.75;5.13;;;;;;;;;;5096324;28;20035;-74
2022/03/23 11:35:50;;;;;;;5.93;4.60;;;;;;;;;;5096656;28;20107;-74
2022/03/23 11:38:20;;;;;;;10.05;4.65;;;;;;;;;;5078073;28;20443;-74
2022/03/23 11:40:47;;;;;;;7.82;4.95;;;;;;;;;;5077836;28;20089;-74
2022/03/23 11:43:13;;;;;;;9.27;4.72;;;;;;;;;;5096169;28;20055;-74
2022/03/23 11:45:40;;;;;;;9.10;4.93;;;;;;;;;;5095741;28;20040;-76
2022/03/23 11:48:18;;;;;;;8.07;5.30;;;;;;;;;;5076787;28;20066;-74
2022/03/23 11:50:44;;;;;;;12.45;4.57;;;;;;;;;;5096089;28;20392;-74
2022/03/23 11:53:20;;;;;;;6.10;4.45;;;;;;;;;;5095613;28;20048;-74
2022/03/23 11:55:50;;;;;;;6.30;4.60;;;;;;;;;;5096305;28;20028;-74
2022/03/23 11:58:22;;;;;;;9.45;4.88;;;;;;;;;;5078067;28;20024;-74
2022/03/23 12:00:51;;;;;;;8.45;4.65;;;;;;;;;;5096574;28;20020;-74
2022/03/23 12:03:36;;;;;;;9.07;4.95;;;;;;;;;;5095892;28;20062;-74
2022/03/23 12:06:09;;;;;;;7.35;4.63;;;;;;;;;;5096099;28;20024;-74
2022/03/23 12:08:52;;;;;;;10.82;4.72;;;;;;;;;;5096098;28;20024;-74
2022/03/23 12:11:41;;;;;;;6.65;4.20;;;;;;;;;;5095670;28;20032;-75
2022/03/23 12:14:18;;;;;;;9.45;4.72;;;;;;;;;;5096122;28;20028;-79
2022/03/23 12:16:47;;;;;;;5.78;4.47;;;;;;;;;;5096115;28;20068;-74
2022/03/23 12:19:17;;;;;;;8.35;4.40;;;;;;;;;;5095839;28;20024;-74
2022/03/23 12:21:58;;;;;;;7.97;4.90;;;;;;;;;;5094434;28;20043;-74
2022/03/23 12:24:51;;;;;;;8.73;4.63;;;;;;;;;;5077158;28;20036;-75
2022/03/23 12:27:23;;;;;;;6.60;4.20;;;;;;;;;;5072521;28;20028;-74
2022/03/23 12:29:50;;;;;;;7.88;5.15;;;;;;;;;;5095346;28;20140;-77
2022/03/23 12:32:16;;;;;;;7.53;4.80;;;;;;;;;;5094699;28;20035;-76
2022/03/23 12:34:43;;;;;;;10.40;4.95;;;;;;;;;;5095136;28;20039;-74
2022/03/23 12:37:10;;;;;;;7.65;4.75;;;;;;;;;;5095112;28;20020;-79
2022/03/23 12:39:39;;;;;;;8.90;4.85;;;;;;;;;;5094656;28;20028;-73
2022/03/23 12:42:11;;;;;;;8.85;4.80;;;;;;;;;;5094820;28;20026;-73
2022/03/23 12:44:38;;;;;;;7.72;4.43;;;;;;;;;;5076120;28;20468;-76
2022/03/23 12:47:09;;;;;;;5.40;4.20;;;;;;;;;;5095130;28;20032;-75
2022/03/23 12:58:05;;;;;;;8.15;4.40;;;;;;;;;;5093329;28;20054;-76
2022/03/23 13:00:32;;;;;;;8.48;4.82;;;;;;;;;;5075837;28;20106;-76
2022/03/23 13:03:05;;;;;;;6.07;4.70;;;;;;;;;;5093734;28;20032;-76
2022/03/23 13:05:34;;;;;;;7.22;4.50;;;;;;;;;;5094296;28;20028;-75
2022/03/23 13:08:00;;;;;;;12.60;5.22;;;;;;;;;;5094756;28;20027;-77
2022/03/23 13:10:26;;;;;;;10.38;5.05;;;;;;;;;;5093941;28;20097;-76
2022/03/23 13:13:05;;;;;;;6.60;4.45;;;;;;;;;;5093767;28;20115;-76
2022/03/23 13:15:31;;;;;;;6.63;4.35;;;;;;;;;;5094167;28;20028;-76
2022/03/23 13:17:57;;;;;;;7.53;4.32;;;;;;;;;;5094510;28;20028;-76
2022/03/23 13:20:26;;;;;;;8.57;4.47;;;;;;;;;;5094687;28;20020;-76
2022/03/23 13:22:53;;;;;;;6.57;4.85;;;;;;;;;;5094429;28;20086;-76
2022/03/23 13:25:19;;;;;;;7.55;4.70;;;;;;;;;;5094630;28;20446;-76
2022/03/23 13:27:47;;;;;;;10.05;4.80;;;;;;;;;;5094326;28;20373;-76
2022/03/23 13:30:14;;;;;;;9.60;4.90;;;;;;;;;;5094650;28;20024;-76
2022/03/23 13:32:42;;;;;;;8.60;4.75;;;;;;;;;;5093271;28;20032;-74
2022/03/23 13:35:13;;;;;;;7.68;4.50;;;;;;;;;;5094223;28;20042;-74
2022/03/23 13:37:57;;;;;;;6.67;4.90;;;;;;;;;;5093819;28;20365;-75
2022/03/23 13:43:19;;;;;;;8.48;4.80;;;;;;;;;;5094030;28;20100;-73
2022/03/23 13:43:19;;;;;;;11.52;4.43;;;;;;;;;;5093866;28;20033;-76
2022/03/23 13:45:49;;;;;;;6.97;4.40;;;;;;;;;;5093584;28;20077;-75
2022/03/23 13:48:16;;;;;;;9.32;4.90;;;;;;;;;;5094175;28;20095;-76
2022/03/23 13:50:45;;;;;;;14.57;5.57;;;;;;;;;;5094149;28;20024;-75
2022/03/23 13:53:14;;;;;;;6.00;4.40;;;;;;;;;;5093926;28;20048;-75
2022/03/23 13:55:42;;;;;;;6.30;4.70;;;;;;;;;;5093954;28;20030;-76
2022/03/23 13:58:09;;;;;;;9.63;4.70;;;;;;;;;;5093989;28;20078;-74
2022/03/23 14:00:35;;;;;;;7.47;4.50;;;;;;;;;;5093301;28;20030;-74
2022/03/23 14:03:02;;;;;;;6.85;4.55;;;;;;;;;;5093505;28;20365;-74
2022/03/23 14:05:32;;;;;;;7.47;4.47;;;;;;;;;;5093946;28;20035;-74
2022/03/23 14:07:59;;;;;;;7.50;4.63;;;;;;;;;;5075799;28;20073;-74
2022/03/23 14:10:36;;;;;;;5.97;4.30;;;;;;;;;;5093840;28;20060;-74
2022/03/23 14:13:06;;;;;;;5.85;4.35;;;;;;;;;;5093688;28;20024;-75
2022/03/23 14:15:36;;;;;;;7.28;4.55;;;;;;;;;;5093196;28;20460;-75
2022/03/23 14:18:03;;;;;;;5.80;4.07;;;;;;;;;;5093479;28;20426;-75
2022/03/23 14:20:30;;;;;;;6.28;4.15;;;;;;;;;;5093592;28;20030;-74
2022/03/23 14:22:56;;;;;;;11.20;4.55;;;;;;;;;;5093245;28;20027;-74
2022/03/23 14:25:25;;;;;;;9.45;4.43;;;;;;;;;;5093513;28;20527;-74
2022/03/23 14:27:54;;;;;;;7.88;4.32;;;;;;;;;;5093076;28;20088;-75
2022/03/23 14:30:20;;;;;;;10.10;4.03;;;;;;;;;;5091976;28;20115;-75
2022/03/23 14:32:57;;;;;;;8.35;4.22;;;;;;;;;;5092065;28;20444;-75
2022/03/23 14:35:44;;;;;;;10.95;4.20;;;;;;;;;;5091949;28;20103;-75
2022/03/23 14:38:11;;;;;;;9.15;4.65;;;;;;;;;;5092808;28;20020;-76
2022/03/23 14:40:38;;;;;;;6.55;4.32;;;;;;;;;;5092638;28;20023;-75
2022/03/23 14:43:06;;;;;;;8.23;4.68;;;;;;;;;;5092538;28;20103;-73
2022/03/23 14:45:41;;;;;;;11.23;4.45;;;;;;;;;;5091924;28;20039;-74
2022/03/23 14:48:16;;;;;;;10.43;4.40;;;;;;;;;;5092376;28;20376;-73
2022/03/23 14:50:49;;;;;;;7.53;4.07;;;;;;;;;;5092640;28;20027;-74
2022/03/23 14:53:16;;;;;;;8.60;4.60;;;;;;;;;;5091693;28;20185;-74
2022/03/23 14:55:44;;;;;;;10.00;4.88;;;;;;;;;;5092820;28;20047;-74
2022/03/23 14:58:23;;;;;;;9.38;4.30;;;;;;;;;;5092951;28;20020;-74
2022/03/23 15:00:49;;;;;;;9.63;4.43;;;;;;;;;;5092968;28;20016;-74
2022/03/23 15:03:15;;;;;;;11.98;4.30;;;;;;;;;;5093190;28;20472;-74
2022/03/23 15:13:54;;;;;;;8.15;4.28;;;;;;;;;;5092928;28;20102;-72